Time;durP1;ratioP1;P1;durP2;ratioP2;P2;SDS_P1;SDS_P2;PMS_P1;PMS_P2;Temp;Humidity;BMP_temperature;BMP_pressure;BME280_temperature;BME280_humidity;BME280_pressure;Samples;Min_cycle;Max_cycle;Signal;HPM_P1;HPM_P2
2022/09/12 00:00:30;;;;;;;9.77;7.63;;;;;;;12.97;83.09;101648.13;5044667;28;20025;-78
2022/09/12 00:02:56;;;;;;;7.70;6.10;;;;;;;12.94;82.39;101652.56;5033686;28;20116;-77
2022/09/12 00:05:22;;;;;;;7.78;6.43;;;;;;;12.89;82.11;101650.06;5049114;28;20504;-78
2022/09/12 00:07:47;;;;;;;8.00;6.43;;;;;;;12.87;82.24;101652.69;5045944;28;20020;-77
2022/09/12 00:10:13;;;;;;;7.85;6.57;;;;;;;12.85;82.66;101641.41;5038289;28;20026;-77
2022/09/12 00:12:39;;;;;;;7.55;5.78;;;;;;;12.83;83.15;101635.38;5044540;28;20515;-77
2022/09/12 00:15:05;;;;;;;6.88;5.72;;;;;;;12.85;83.48;101641.41;5041118;28;20029;-77
2022/09/12 00:17:33;;;;;;;9.25;7.10;;;;;;;12.83;83.81;101630.16;5040910;28;20021;-77
2022/09/12 00:19:59;;;;;;;12.15;8.15;;;;;;;12.84;84.16;101626.66;5036382;28;20029;-77
2022/09/12 00:22:24;;;;;;;13.02;8.98;;;;;;;12.82;84.23;101628.44;5021329;28;20029;-77
2022/09/12 00:24:49;;;;;;;13.15;9.70;;;;;;;12.82;84.26;101627.59;5043870;28;20113;-77
2022/09/12 00:27:14;;;;;;;13.32;10.43;;;;;;;12.80;84.27;101632.84;5020283;28;20024;-77
2022/09/12 00:29:40;;;;;;;14.98;11.43;;;;;;;12.77;84.25;101622.47;5041521;28;20013;-77
2022/09/12 00:32:05;;;;;;;11.50;8.80;;;;;;;12.74;84.14;101625.16;5040045;28;20654;-77
2022/09/12 00:34:30;;;;;;;9.63;6.78;;;;;;;12.71;83.81;101625.22;5039027;28;20100;-77
2022/09/12 00:36:56;;;;;;;8.02;6.25;;;;;;;12.68;83.14;101625.28;5043136;28;20503;-77
2022/09/12 00:39:21;;;;;;;9.70;7.13;;;;;;;12.67;83.32;101613.09;5038276;28;20076;-78
2022/09/12 00:41:46;;;;;;;11.60;8.45;;;;;;;12.65;84.12;101609.66;5042430;28;20037;-77
2022/09/12 00:44:11;;;;;;;11.55;8.63;;;;;;;12.64;84.58;101615.81;5042152;28;20067;-77
2022/09/12 00:46:43;;;;;;;9.27;7.35;;;;;;;12.61;84.28;101614.09;5049539;28;20024;-77
2022/09/12 00:49:24;;;;;;;;;;;;;;;12.67;82.91;101605.28;5048766;28;20020;-77
2022/09/12 00:51:59;;;;;;;7.57;5.53;;;;;;;12.58;83.63;101606.34;5044862;28;19999;-77
2022/09/12 00:54:29;;;;;;;7.28;5.55;;;;;;;12.54;82.96;101609.94;5041326;28;20551;-77
2022/09/12 00:57:05;;;;;;;6.50;4.80;;;;;;;12.48;82.83;101610.91;5032307;28;20546;-77
2022/09/12 00:59:38;;;;;;;7.70;4.40;;;;;;;12.46;83.28;101610.09;5035576;28;20044;-77
2022/09/12 01:02:04;;;;;;;5.40;3.88;;;;;;;12.41;83.18;101597.13;5037698;28;20098;-77
2022/09/12 01:04:29;;;;;;;5.55;4.25;;;;;;;12.40;83.73;101600.63;5044015;28;20080;-77
2022/09/12 01:06:57;;;;;;;6.80;4.25;;;;;;;12.42;83.97;101587.56;5035924;28;20033;-77
2022/09/12 01:09:24;;;;;;;8.85;6.63;;;;;;;12.42;84.14;101587.56;5027359;28;20032;-77
2022/09/12 01:11:50;;;;;;;10.63;7.95;;;;;;;12.39;84.48;101590.22;5035991;28;20374;-77
2022/09/12 01:14:18;;;;;;;10.60;8.00;;;;;;;12.36;84.32;101588.56;5035499;28;20021;-75
2022/09/12 01:16:44;;;;;;;13.25;8.77;;;;;;;12.35;84.09;101591.19;5035194;28;20033;-75
2022/09/12 01:19:47;;;;;;;14.05;9.35;;;;;;;12.38;84.53;101593.72;5033480;28;20033;-75
2022/09/12 01:22:50;;;;;;;8.95;6.80;;;;;;;12.37;83.70;101586.78;5041450;28;20405;-75
2022/09/12 01:25:56;;;;;;;8.52;6.28;;;;;;;12.34;83.56;101594.69;5038623;28;20098;-75
2022/09/12 01:29:17;;;;;;;8.43;5.70;;;;;;;12.30;83.60;101592.13;5036428;28;20036;-75
2022/09/12 01:32:06;;;;;;;7.05;5.72;;;;;;;12.29;84.08;101587.81;4990357;28;20109;-75
2022/09/12 01:34:57;;;;;;;6.70;5.07;;;;;;;12.28;83.61;101588.72;4970447;28;20026;-75
2022/09/12 01:37:53;;;;;;;7.50;5.90;;;;;;;12.26;83.24;101587.88;5026692;28;20037;-75
2022/09/12 01:40:30;;;;;;;8.52;6.50;;;;;;;12.24;83.82;101579.22;5046108;28;20052;-75
2022/09/12 01:43:07;;;;;;;12.60;9.15;;;;;;;12.23;84.34;101577.50;5033813;28;20040;-75
2022/09/12 01:45:42;;;;;;;13.40;9.82;;;;;;;12.21;84.83;101574.06;5043879;28;20415;-75
2022/09/12 01:48:19;;;;;;;13.55;10.20;;;;;;;12.21;85.06;101568.84;5041584;28;20033;-76
2022/09/12 01:51:04;;;;;;;13.80;9.77;;;;;;;12.21;85.22;101562.78;5034904;28;20104;-76
2022/09/12 01:53:37;;;;;;;11.38;8.60;;;;;;;12.17;84.81;101559.38;5042786;28;20029;-75
2022/09/12 01:56:09;;;;;;;10.68;7.78;;;;;;;12.14;84.25;101557.69;5041556;28;20031;-75
2022/09/12 01:58:41;;;;;;;12.40;7.97;;;;;;;12.14;84.56;101556.81;5045461;28;20072;-75
2022/09/12 02:01:15;;;;;;;10.75;8.18;;;;;;;12.10;84.24;101556.03;5048708;28;20036;-75
2022/09/12 02:03:47;;;;;;;11.10;8.05;;;;;;;12.10;84.17;101549.97;5051096;28;20104;-75
2022/09/12 02:06:19;;;;;;;8.32;5.78;;;;;;;12.09;84.45;101543.03;5045100;28;20554;-75
2022/09/12 02:08:56;;;;;;;7.85;5.97;;;;;;;12.06;84.12;101540.47;5039309;28;20031;-75
2022/09/12 02:11:21;;;;;;;7.05;5.28;;;;;;;12.02;83.95;101544.03;5039621;28;20502;-75
2022/09/12 02:14:05;;;;;;;10.90;7.82;;;;;;;12.01;84.31;101544.94;5042957;28;20025;-75
2022/09/12 02:16:35;;;;;;;9.05;7.25;;;;;;;12.01;84.57;101551.00;5042815;28;20139;-75
2022/09/12 02:19:11;;;;;;;9.20;6.80;;;;;;;12.01;84.57;101539.72;5040734;28;20033;-75
2022/09/12 02:21:41;;;;;;;9.73;7.05;;;;;;;12.01;84.48;101537.09;5036055;28;20083;-76
2022/09/12 02:24:09;;;;;;;9.80;7.40;;;;;;;11.99;84.75;101538.00;5038575;28;20033;-75
2022/09/12 02:26:51;;;;;;;9.90;7.28;;;;;;;11.96;84.63;101535.41;5045533;28;20365;-75
2022/09/12 02:29:16;;;;;;;10.15;7.10;;;;;;;11.96;84.54;101538.00;5041966;28;20036;-75
2022/09/12 02:31:48;;;;;;;9.45;6.60;;;;;;;11.93;84.43;101538.09;5042582;28;20032;-75
2022/09/12 02:34:42;;;;;;;9.63;7.32;;;;;;;11.92;84.30;101533.78;5051350;28;20044;-76
2022/09/12 02:37:24;;;;;;;11.35;7.35;;;;;;;11.90;84.46;101537.28;5035647;28;20392;-75
2022/09/12 02:39:50;;;;;;;;;;;;;;;11.91;83.37;101529.44;5020825;28;20400;-75
2022/09/12 02:42:15;;;;;;;10.85;7.30;;;;;;;11.84;84.74;101533.06;5041407;28;19920;-75
2022/09/12 02:44:41;;;;;;;7.43;6.10;;;;;;;11.79;84.07;101537.50;5041146;28;20021;-76
2022/09/12 02:47:34;;;;;;;9.85;6.70;;;;;;;11.78;83.59;101546.22;5035137;28;20033;-75
2022/09/12 02:49:59;;;;;;;9.95;6.88;;;;;;;11.75;83.63;101543.69;5038843;28;20136;-75
2022/09/12 02:52:27;;;;;;;8.27;6.15;;;;;;;11.74;84.17;101539.34;5038945;28;20116;-75
2022/09/12 02:54:54;;;;;;;9.52;6.63;;;;;;;11.73;84.40;101535.88;5036317;28;20036;-75
2022/09/12 02:57:20;;;;;;;11.00;7.03;;;;;;;11.75;84.57;101543.69;5035070;28;20041;-75
2022/09/12 02:59:47;;;;;;;10.60;7.85;;;;;;;11.74;84.60;101534.13;5040238;28;20392;-75
2022/09/12 03:02:51;;;;;;;14.45;8.30;;;;;;;11.74;84.41;101532.38;5037628;28;20033;-75
2022/09/12 03:05:33;;;;;;;10.50;8.02;;;;;;;11.72;84.89;101525.47;5002031;28;20045;-75
2022/09/12 03:08:05;;;;;;;10.38;7.72;;;;;;;11.75;84.73;101528.03;4998389;28;20444;-75
2022/09/12 03:10:40;;;;;;;10.85;7.90;;;;;;;11.74;85.17;101521.09;5023126;28;20045;-75
2022/09/12 03:13:13;;;;;;;9.80;7.20;;;;;;;11.72;84.90;101515.91;5039096;28;20032;-75
2022/09/12 03:15:56;;;;;;;11.65;8.05;;;;;;;11.75;85.52;101515.84;5039520;28;20119;-75
2022/09/12 03:18:50;;;;;;;11.65;8.27;;;;;;;11.76;84.98;101511.50;5039167;28;20025;-75
2022/09/12 03:21:47;;;;;;;11.23;7.97;;;;;;;11.75;84.90;101509.78;5040683;28;20032;-77
2022/09/12 03:24:18;;;;;;;8.85;6.07;;;;;;;11.74;85.24;101513.28;5039207;28;20030;-75
2022/09/12 03:26:51;;;;;;;6.43;5.20;;;;;;;11.72;84.28;101507.25;5034622;28;20397;-75
2022/09/12 03:29:17;;;;;;;6.95;5.30;;;;;;;11.69;84.23;101513.38;5040245;28;20025;-75
2022/09/12 03:31:53;;;;;;;9.20;5.70;;;;;;;11.69;84.66;101510.78;5037997;28;20108;-75
2022/09/12 03:34:20;;;;;;;7.90;5.95;;;;;;;11.67;84.77;101510.78;5038044;28;20036;-75
2022/09/12 03:36:46;;;;;;;7.03;5.50;;;;;;;11.65;84.70;101509.94;5034898;28;20021;-75
2022/09/12 03:39:12;;;;;;;9.00;6.70;;;;;;;11.64;84.60;101505.63;5035501;28;20467;-75
2022/09/12 03:41:37;;;;;;;9.60;6.93;;;;;;;11.66;85.13;101500.41;5036690;28;20392;-75
2022/09/12 03:44:03;;;;;;;10.38;7.28;;;;;;;11.66;85.58;101503.84;5036805;28;20033;-75
2022/09/12 03:46:28;;;;;;;10.40;7.78;;;;;;;11.67;85.82;101505.56;5035124;28;20822;-76
2022/09/12 03:48:53;;;;;;;11.48;7.93;;;;;;;11.68;85.99;101506.44;5036622;28;20033;-75
2022/09/12 03:51:19;;;;;;;12.50;8.55;;;;;;;11.67;84.82;101499.50;5034361;28;20091;-75
2022/09/12 03:53:45;;;;;;;13.63;8.82;;;;;;;11.66;85.14;101503.84;5040877;28;20058;-75
2022/09/12 03:56:11;;;;;;;13.23;8.85;;;;;;;11.68;85.50;101502.06;5044185;28;20079;-75
2022/09/12 03:58:37;;;;;;;13.27;8.50;;;;;;;11.68;85.22;101501.22;5034962;28;20041;-75
2022/09/12 04:01:14;;;;;;;15.38;9.73;;;;;;;11.71;85.83;101500.31;5040252;28;20027;-75
2022/09/12 04:03:40;;;;;;;15.00;9.43;;;;;;;11.71;85.96;101495.94;5039338;28;20086;-75
2022/09/12 04:06:08;;;;;;;16.58;10.50;;;;;;;11.74;86.30;101495.03;5039392;28;20095;-75
2022/09/12 04:08:35;;;;;;;14.02;9.98;;;;;;;11.73;86.21;101485.50;5035309;28;22222;-75
2022/09/12 04:11:09;;;;;;;16.35;10.02;;;;;;;11.77;86.52;101489.75;5036085;28;20025;-75
2022/09/12 04:13:35;;;;;;;14.82;9.63;;;;;;;11.75;86.01;101487.16;5037811;28;20132;-75
2022/09/12 04:16:01;;;;;;;12.60;9.05;;;;;;;11.76;85.92;101488.06;5034161;28;20029;-75
2022/09/12 04:18:27;;;;;;;14.93;9.38;;;;;;;11.76;85.64;101493.25;5042016;28;20499;-75
2022/09/12 04:20:53;;;;;;;13.73;9.48;;;;;;;11.76;85.90;101483.69;5038720;28;20116;-75
2022/09/12 04:23:18;;;;;;;14.40;9.52;;;;;;;11.76;85.72;101477.63;5033016;28;20028;-75
2022/09/12 04:25:51;;;;;;;16.30;10.20;;;;;;;11.76;86.13;101482.84;5037824;28;20083;-75
2022/09/12 04:28:16;;;;;;;17.40;11.05;;;;;;;11.78;86.36;101478.44;5034949;28;20033;-75
2022/09/12 04:30:42;;;;;;;15.93;10.25;;;;;;;11.79;86.15;101483.63;5032850;28;20033;-75
2022/09/12 04:33:07;;;;;;;16.63;10.88;;;;;;;11.79;85.54;101473.19;5036183;28;20468;-75
2022/09/12 04:35:34;;;;;;;18.15;11.10;;;;;;;11.80;86.22;101474.91;5036583;28;20056;-75
2022/09/12 04:37:59;;;;;;;18.15;11.80;;;;;;;11.81;86.48;101481.84;5040086;28;20025;-75
2022/09/12 04:40:25;;;;;;;19.63;11.38;;;;;;;11.81;86.10;101468.81;5036954;28;20469;-75
2022/09/12 04:42:50;;;;;;;18.10;11.02;;;;;;;11.81;85.93;101470.53;5036802;28;20061;-75
2022/09/12 04:45:15;;;;;;;15.43;10.25;;;;;;;11.82;86.49;101477.47;5020465;28;20043;-75
2022/09/12 04:47:40;;;;;;;18.70;11.80;;;;;;;11.83;86.47;101469.63;5036444;28;20045;-75
2022/09/12 04:50:06;;;;;;;19.90;11.60;;;;;;;11.84;86.61;101463.53;5035786;28;20404;-76
2022/09/12 04:52:32;;;;;;;22.33;13.07;;;;;;;11.85;86.80;101456.56;5032958;28;20013;-75
2022/09/12 04:54:57;;;;;;;20.27;13.05;;;;;;;11.86;86.88;101462.66;5040070;28;20036;-75
2022/09/12 04:57:22;;;;;;;21.80;13.73;;;;;;;11.88;87.16;101461.72;5037331;28;20033;-75
2022/09/12 04:59:47;;;;;;;22.60;13.70;;;;;;;11.90;87.15;101464.28;5032725;28;20115;-75
2022/09/12 05:02:13;;;;;;;21.73;13.07;;;;;;;11.90;87.23;101465.16;5038917;28;20053;-75
2022/09/12 05:04:38;;;;;;;22.50;13.98;;;;;;;11.92;87.06;101465.97;5035432;28;20060;-75
2022/09/12 05:07:04;;;;;;;21.95;14.05;;;;;;;11.93;87.48;101459.88;5036550;28;20390;-75
2022/09/12 05:09:29;;;;;;;22.13;13.50;;;;;;;11.94;87.29;101464.19;5042816;28;20021;-75
2022/09/12 05:11:55;;;;;;;20.52;13.43;;;;;;;11.95;87.63;101458.09;5045758;28;20622;-75
2022/09/12 05:14:20;;;;;;;22.63;14.13;;;;;;;11.98;87.62;101468.47;5035037;28;20108;-75
2022/09/12 05:16:46;;;;;;;21.17;12.80;;;;;;;11.99;87.64;101469.34;5036266;28;20032;-75
2022/09/12 05:19:11;;;;;;;25.35;13.80;;;;;;;12.02;87.70;101465.81;5040154;28;20052;-75
2022/09/12 05:21:37;;;;;;;21.63;13.35;;;;;;;12.03;88.13;101475.34;5032901;28;20029;-75
2022/09/12 05:24:05;;;;;;;21.50;13.55;;;;;;;12.05;88.02;101468.34;5036197;28;20034;-75
2022/09/12 05:26:30;;;;;;;21.95;13.25;;;;;;;12.06;88.03;101467.47;5035784;28;20087;-75
2022/09/12 05:28:55;;;;;;;20.20;13.02;;;;;;;12.06;87.92;101477.88;5034772;28;20033;-75
2022/09/12 05:31:26;;;;;;;22.45;13.57;;;;;;;12.07;87.98;101469.19;5036598;28;20017;-75
2022/09/12 05:33:53;;;;;;;23.05;13.73;;;;;;;12.08;88.11;101469.13;5034623;28;20460;-75
2022/09/12 05:36:29;;;;;;;22.58;14.18;;;;;;;12.10;88.38;101463.91;5038605;28;20029;-75
2022/09/12 05:38:54;;;;;;;23.00;13.82;;;;;;;12.12;88.28;101470.78;5036975;28;20137;-76
2022/09/12 05:41:23;;;;;;;22.98;14.05;;;;;;;12.13;88.40;101469.91;5037670;28;20032;-75
2022/09/12 05:43:57;;;;;;;23.08;13.90;;;;;;;12.15;88.45;101464.63;5032817;28;20065;-75
2022/09/12 05:46:24;;;;;;;24.33;13.90;;;;;;;12.17;88.64;101472.44;5035197;28;20028;-75
2022/09/12 05:48:50;;;;;;;24.02;14.23;;;;;;;12.18;88.74;101475.00;5033548;28;20033;-75
2022/09/12 05:51:21;;;;;;;25.80;14.98;;;;;;;12.23;89.05;101472.28;5041518;28;20032;-75
2022/09/12 05:53:49;;;;;;;24.27;14.27;;;;;;;12.25;88.73;101466.16;5040185;28;20469;-75
2022/09/12 05:56:22;;;;;;;26.58;14.60;;;;;;;12.27;88.83;101468.72;5033934;28;20032;-75
2022/09/12 05:58:52;;;;;;;25.27;14.50;;;;;;;12.29;89.01;101472.16;5036269;28;20044;-75
2022/09/12 06:01:18;;;;;;;26.00;15.23;;;;;;;12.32;89.25;101486.88;5033364;28;20020;-75
2022/09/12 06:03:46;;;;;;;23.58;14.95;;;;;;;12.32;89.80;101486.88;5035990;28;20074;-75
2022/09/12 06:06:13;;;;;;;22.88;14.98;;;;;;;12.36;89.67;101483.31;5035669;28;20041;-76
2022/09/12 06:08:43;;;;;;;25.80;15.68;;;;;;;12.38;89.77;101482.38;5032016;28;20376;-75
2022/09/12 06:11:12;;;;;;;23.38;14.38;;;;;;;12.41;89.76;101487.53;5032159;28;20026;-75
2022/09/12 06:13:41;;;;;;;23.70;15.50;;;;;;;12.42;89.72;101486.63;5035594;28;20024;-75
2022/09/12 06:16:09;;;;;;;22.42;14.45;;;;;;;12.45;90.02;101483.97;5032601;28;20105;-75
2022/09/12 06:18:35;;;;;;;24.45;14.93;;;;;;;12.49;89.98;101486.50;5040290;28;20037;-75
2022/09/12 06:21:02;;;;;;;27.05;15.60;;;;;;;12.52;90.05;101489.03;5035136;28;20465;-75
2022/09/12 06:23:28;;;;;;;26.48;14.77;;;;;;;12.54;90.17;101490.72;5034141;28;20032;-75
2022/09/12 06:25:54;;;;;;;23.65;14.52;;;;;;;12.56;90.26;101490.66;5034059;28;20037;-75
2022/09/12 06:28:19;;;;;;;23.35;14.98;;;;;;;12.58;89.98;101481.91;5030776;28;20736;-75
2022/09/12 06:30:44;;;;;;;24.63;15.25;;;;;;;12.60;89.70;101487.97;5033378;28;20025;-75
2022/09/12 06:33:10;;;;;;;23.60;15.25;;;;;;;12.60;89.88;101482.75;5035212;28;20062;-75
2022/09/12 06:35:37;;;;;;;22.33;14.68;;;;;;;12.64;90.12;101482.69;5040487;28;20396;-75
2022/09/12 06:38:02;;;;;;;23.45;14.90;;;;;;;12.67;89.76;101488.69;5035778;28;20030;-75
2022/09/12 06:40:28;;;;;;;25.27;15.35;;;;;;;12.69;89.60;101486.00;5039177;28;20472;-77
2022/09/12 06:42:54;;;;;;;23.08;14.32;;;;;;;12.69;89.73;101478.19;5037792;28;20500;-76
2022/09/12 06:45:19;;;;;;;24.85;15.13;;;;;;;12.71;89.42;101474.66;5039766;28;20576;-77
2022/09/12 06:47:45;;;;;;;24.42;15.90;;;;;;;12.72;89.51;101478.94;5038843;28;20025;-77
2022/09/12 06:50:10;;;;;;;22.85;14.70;;;;;;;12.73;89.67;101478.06;5044985;28;20033;-77
2022/09/12 06:52:35;;;;;;;23.25;15.10;;;;;;;12.77;89.60;101481.47;5052676;28;20021;-76
2022/09/12 06:55:01;;;;;;;23.30;14.50;;;;;;;12.80;89.56;101478.78;5045206;28;20074;-77
2022/09/12 06:57:29;;;;;;;24.20;14.73;;;;;;;12.81;89.34;101470.03;5051716;28;20059;-77
2022/09/12 06:59:54;;;;;;;24.55;15.20;;;;;;;12.85;89.61;101471.69;5035053;28;20470;-77
2022/09/12 07:02:20;;;;;;;25.50;16.08;;;;;;;12.87;89.79;101474.28;5051908;28;20052;-77
2022/09/12 07:04:45;;;;;;;24.10;16.00;;;;;;;12.91;89.93;101468.06;5039341;28;20053;-77
2022/09/12 07:07:11;;;;;;;27.00;16.35;;;;;;;12.94;89.89;101474.97;5040595;28;20515;-77
2022/09/12 07:09:36;;;;;;;26.40;16.10;;;;;;;13.00;90.26;101473.06;5035849;28;20036;-77
2022/09/12 07:12:03;;;;;;;26.88;16.05;;;;;;;13.07;90.52;101465.91;5043824;28;20025;-77
2022/09/12 07:14:29;;;;;;;26.48;16.70;;;;;;;13.13;90.67;101470.13;5020454;28;20021;-75
2022/09/12 07:16:54;;;;;;;29.05;16.25;;;;;;;13.19;91.17;101464.75;5044035;28;20404;-76
2022/09/12 07:19:19;;;;;;;25.15;15.57;;;;;;;13.29;91.08;101470.59;5044516;28;21337;-76
2022/09/12 07:21:44;;;;;;;24.33;15.73;;;;;;;13.33;91.01;101470.44;5048628;28;20090;-76
2022/09/12 07:24:10;;;;;;;25.40;16.50;;;;;;;13.39;90.90;101465.97;5047425;28;20024;-77
2022/09/12 07:26:36;;;;;;;26.20;16.30;;;;;;;13.43;90.92;101468.47;5046023;28;20377;-77
2022/09/12 07:29:03;;;;;;;26.00;16.00;;;;;;;13.48;91.03;101463.97;5047475;28;20029;-76
2022/09/12 07:31:29;;;;;;;25.65;16.33;;;;;;;13.55;91.46;101456.81;5048713;28;20025;-77
2022/09/12 07:33:54;;;;;;;26.05;16.30;;;;;;;13.60;91.28;101456.69;5043486;28;20028;-77
2022/09/12 07:36:22;;;;;;;24.35;15.85;;;;;;;13.64;91.34;101456.53;5048159;28;20035;-77
2022/09/12 07:38:52;;;;;;;26.83;16.35;;;;;;;13.71;91.42;101453.75;5048453;28;20025;-77
2022/09/12 07:41:19;;;;;;;27.00;17.00;;;;;;;13.78;91.26;101463.13;5048003;28;20392;-77
2022/09/12 07:43:45;;;;;;;26.77;16.73;;;;;;;13.84;91.45;101462.09;5047138;28;20025;-76
2022/09/12 07:46:11;;;;;;;24.77;16.52;;;;;;;13.92;91.32;101460.97;5048233;28;20104;-76
2022/09/12 07:48:37;;;;;;;26.27;17.05;;;;;;;14.01;91.38;101469.44;5048309;28;20707;-77
2022/09/12 07:51:06;;;;;;;28.13;17.52;;;;;;;14.08;91.41;101465.75;5045592;28;20056;-78
2022/09/12 07:53:34;;;;;;;27.42;16.85;;;;;;;14.14;91.37;101464.72;5047244;28;20095;-77
2022/09/12 07:55:59;;;;;;;26.08;17.30;;;;;;;14.21;91.15;101471.44;5046503;28;20032;-77
2022/09/12 07:58:25;;;;;;;25.63;17.58;;;;;;;14.27;90.88;101466.03;5046877;28;20020;-77
2022/09/12 08:00:51;;;;;;;27.38;16.92;;;;;;;14.33;90.90;101465.84;5044915;28;20037;-77
2022/09/12 08:03:17;;;;;;;23.83;16.50;;;;;;;14.40;91.12;101469.97;5046030;28;20063;-77
2022/09/12 08:05:42;;;;;;;25.73;16.67;;;;;;;14.46;90.94;101474.16;5043932;28;20090;-77
2022/09/12 08:08:08;;;;;;;27.48;17.35;;;;;;;14.55;91.09;101467.75;5045957;28;20469;-77
2022/09/12 08:10:34;;;;;;;24.08;17.05;;;;;;;14.65;91.77;101469.19;5045103;28;20567;-77
2022/09/12 08:12:59;;;;;;;25.85;17.50;;;;;;;14.74;92.16;101469.81;5026493;28;20563;-77
2022/09/12 08:15:25;;;;;;;31.92;17.40;;;;;;;14.82;91.81;101467.81;5046321;28;20044;-77
2022/09/12 08:17:50;;;;;;;26.73;17.50;;;;;;;14.91;92.02;101474.50;5047014;28;20035;-77
2022/09/12 08:20:16;;;;;;;23.60;16.55;;;;;;;14.96;91.03;101470.81;5047828;28;20068;-77
2022/09/12 08:22:42;;;;;;;23.00;15.93;;;;;;;15.05;91.04;101474.88;5027442;28;20036;-77
2022/09/12 08:25:08;;;;;;;25.85;17.38;;;;;;;15.14;91.20;101468.47;5046539;28;20028;-78
2022/09/12 08:27:33;;;;;;;22.35;14.93;;;;;;;15.20;89.42;101467.38;5041378;28;20075;-77
2022/09/12 08:29:59;;;;;;;26.15;15.45;;;;;;;15.26;89.20;101468.03;5044417;28;20110;-78
2022/09/12 08:32:24;;;;;;;23.13;15.57;;;;;;;15.32;89.26;101472.19;5039540;28;20111;-77
2022/09/12 08:34:49;;;;;;;20.88;14.57;;;;;;;15.39;88.47;101478.94;5040657;28;20086;-77
2022/09/12 08:37:15;;;;;;;20.02;15.30;;;;;;;15.46;89.33;101474.31;5045335;28;20037;-77
2022/09/12 08:39:40;;;;;;;22.77;15.88;;;;;;;15.54;88.72;101476.66;5044946;28;20388;-78
2022/09/12 08:42:06;;;;;;;20.83;14.73;;;;;;;15.58;87.60;101481.75;5047657;28;20024;-77
2022/09/12 08:45:03;;;;;;;20.77;14.23;;;;;;;15.63;86.97;101479.81;5041248;28;20063;-77
2022/09/12 08:47:35;;;;;;;20.80;14.90;;;;;;;15.69;86.52;101481.34;5041241;28;20032;-78
2022/09/12 08:50:10;;;;;;;21.17;14.30;;;;;;;15.75;86.57;101491.63;5040538;28;20052;-77
2022/09/12 08:52:57;;;;;;;22.05;15.65;;;;;;;15.86;86.52;101480.75;5042422;28;20025;-77
2022/09/12 08:55:33;;;;;;;21.05;15.52;;;;;;;15.94;86.54;101475.22;5041153;28;20104;-77
2022/09/12 08:58:01;;;;;;;19.85;15.02;;;;;;;16.00;86.30;101477.59;5039404;28;20029;-77
2022/09/12 09:00:47;;;;;;;22.17;15.38;;;;;;;16.07;86.98;101479.06;5035779;28;20116;-77
2022/09/12 09:03:30;;;;;;;21.23;15.32;;;;;;;16.15;86.60;101470.91;5040529;28;20033;-77
2022/09/12 09:06:19;;;;;;;20.50;14.68;;;;;;;16.23;86.69;101471.44;5040534;28;20041;-76
2022/09/12 09:08:57;;;;;;;20.02;14.68;;;;;;;16.30;84.86;101463.34;5039069;28;20447;-77
2022/09/12 09:11:33;;;;;;;19.50;15.20;;;;;;;16.36;85.55;101469.19;5021170;28;20040;-76
2022/09/12 09:17:13;;;;;;;19.35;14.30;;;;;;;16.59;85.17;101462.16;5038508;28;20522;-77
2022/09/12 09:20:04;;;;;;;20.30;13.90;;;;;;;16.67;84.47;101464.47;5038776;28;20055;-77
2022/09/12 09:22:39;;;;;;;19.60;14.52;;;;;;;16.75;83.87;101464.16;4982736;28;20045;-78
2022/09/12 09:25:18;;;;;;;19.67;14.05;;;;;;;16.80;83.51;101460.41;5038232;28;20021;-78
2022/09/12 09:27:56;;;;;;;19.05;14.18;;;;;;;16.89;84.11;101447.81;5036308;28;20094;-76
2022/09/12 09:30:21;;;;;;;18.08;12.95;;;;;;;16.95;82.00;101452.81;5034911;28;20025;-77
2022/09/12 09:32:55;;;;;;;16.25;12.80;;;;;;;17.04;83.25;101452.44;5040757;28;20024;-77
2022/09/12 09:35:31;;;;;;;16.65;12.77;;;;;;;17.11;83.09;101445.13;5036254;28;20395;-78
2022/09/12 09:38:06;;;;;;;16.23;12.95;;;;;;;17.16;82.44;101445.78;5039056;28;20051;-78
2022/09/12 09:40:53;;;;;;;19.17;12.68;;;;;;;17.25;82.41;101450.63;5040328;28;20060;-78
2022/09/12 09:43:21;;;;;;;16.25;11.07;;;;;;;17.32;80.17;101439.84;5037411;28;20033;-78
2022/09/12 09:45:47;;;;;;;14.98;10.35;;;;;;;17.38;79.23;101440.44;5036565;28;20036;-77
2022/09/12 09:48:17;;;;;;;13.10;10.80;;;;;;;17.47;80.18;101444.44;5036403;28;20069;-78
2022/09/12 09:50:44;;;;;;;15.77;11.32;;;;;;;17.55;81.09;101444.06;5041145;28;20468;-77
2022/09/12 09:53:36;;;;;;;14.70;11.45;;;;;;;17.63;80.17;101435.81;5040607;28;20025;-78
2022/09/12 09:56:14;;;;;;;15.57;10.82;;;;;;;17.70;80.03;101435.47;5022712;28;20036;-78
2022/09/12 09:58:40;;;;;;;12.43;9.50;;;;;;;17.78;77.24;101426.34;5036190;28;20064;-78
2022/09/12 10:01:15;;;;;;;13.32;9.55;;;;;;;17.84;77.24;101426.06;5036613;28;20037;-78
2022/09/12 10:03:47;;;;;;;12.18;8.88;;;;;;;17.91;76.34;101427.50;5035160;28;20043;-78
2022/09/12 10:06:21;;;;;;;10.90;8.48;;;;;;;17.96;75.71;101414.94;5035991;28;20103;-78
2022/09/12 10:08:48;;;;;;;10.02;7.60;;;;;;;18.01;74.62;101412.16;5037669;28;20378;-78
2022/09/12 10:11:16;;;;;;;10.40;7.85;;;;;;;18.10;74.79;101413.50;5036845;28;20033;-78
2022/09/12 10:13:52;;;;;;;10.38;7.45;;;;;;;18.15;73.38;101414.09;5038584;28;21355;-78
2022/09/12 10:16:21;;;;;;;10.48;7.25;;;;;;;18.22;72.90;101405.00;5019298;28;20060;-78
2022/09/12 10:18:52;;;;;;;9.88;7.07;;;;;;;18.31;72.29;101406.31;5039795;28;20040;-78
2022/09/12 10:21:28;;;;;;;8.40;6.45;;;;;;;18.37;72.19;101407.78;5044297;28;20047;-78
2022/09/12 10:24:17;;;;;;;9.52;6.60;;;;;;;18.41;71.59;101401.44;5041621;28;20029;-78
2022/09/12 10:26:57;;;;;;;9.00;7.18;;;;;;;18.44;71.54;101398.66;5039002;28;20040;-78
2022/09/12 10:29:29;;;;;;;10.73;7.20;;;;;;;18.46;72.11;101396.78;5038722;28;20033;-78
2022/09/12 10:32:00;;;;;;;9.43;7.28;;;;;;;18.54;73.99;101389.34;5039496;28;20052;-78
2022/09/12 10:34:34;;;;;;;10.65;7.47;;;;;;;18.62;72.59;101392.44;5043480;28;20029;-78
2022/09/12 10:37:08;;;;;;;9.30;7.38;;;;;;;18.66;71.96;101378.19;5037155;28;20033;-78
2022/09/12 10:39:36;;;;;;;8.77;7.55;;;;;;;18.72;71.13;101384.06;5039152;28;20044;-78
2022/09/12 10:42:03;;;;;;;10.20;6.85;;;;;;;18.77;72.08;101376.78;5041542;28;20384;-78
2022/09/12 10:44:30;;;;;;;7.18;5.50;;;;;;;18.82;69.94;101387.94;5039722;28;20166;-77
2022/09/12 10:46:57;;;;;;;6.00;4.65;;;;;;;18.85;66.13;101376.38;5042889;28;20104;-77
2022/09/12 10:49:36;;;;;;;5.45;4.72;;;;;;;18.93;69.20;101372.41;5040707;28;20026;-77
2022/09/12 10:52:22;;;;;;;6.30;4.35;;;;;;;19.00;69.43;101366.84;5022255;28;20036;-78
2022/09/12 10:54:49;;;;;;;5.15;3.95;;;;;;;19.07;65.53;101365.59;5044888;28;20036;-78
2022/09/12 10:57:40;;;;;;;5.20;4.43;;;;;;;19.13;67.29;101362.59;5045289;28;20491;-78
2022/09/12 11:00:19;;;;;;;6.03;3.67;;;;;;;19.20;66.29;101360.50;5041714;28;20120;-78
2022/09/12 11:02:49;;;;;;;6.13;4.25;;;;;;;19.26;66.90;101366.31;5022323;28;20044;-78
2022/09/12 11:05:46;;;;;;;5.95;4.13;;;;;;;19.31;67.66;101360.78;5037574;28;20045;-78
2022/09/12 11:08:32;;;;;;;5.32;4.03;;;;;;;19.31;66.83;101344.06;5038388;28;20025;-78
2022/09/12 11:11:45;;;;;;;6.05;4.00;;;;;;;19.35;69.21;101349.13;5037090;28;20033;-78
2022/09/12 11:14:24;;;;;;;6.38;4.13;;;;;;;19.43;67.93;101338.16;4966037;28;20404;-77
2022/09/12 11:17:02;;;;;;;6.90;4.95;;;;;;;19.48;65.91;101336.09;5036979;28;20126;-78
2022/09/12 11:19:45;;;;;;;5.85;4.03;;;;;;;19.53;66.52;101330.56;5034582;28;20029;-78
2022/09/12 11:22:18;;;;;;;5.55;4.30;;;;;;;19.63;66.71;101331.75;5018108;28;20492;-78
2022/09/12 11:24:44;;;;;;;5.32;4.10;;;;;;;19.67;64.27;101328.00;5036104;28;20064;-78
2022/09/12 11:27:18;;;;;;;4.78;4.00;;;;;;;19.69;65.76;101328.78;5036479;28;20552;-78
2022/09/12 11:29:51;;;;;;;5.72;4.18;;;;;;;19.75;66.32;101324.06;5041498;28;20476;-78
2022/09/12 11:32:44;;;;;;;6.35;4.10;;;;;;;19.79;64.98;101321.19;5034848;28;20116;-80
2022/09/12 11:35:26;;;;;;;5.43;4.20;;;;;;;19.83;66.05;101322.69;5038740;28;20359;-78
2022/09/12 11:38:16;;;;;;;6.30;4.15;;;;;;;19.90;66.50;101322.38;5022600;28;20025;-78